sensor_id;sensor_type;location;lat;lon;timestamp;temperature;humidity
19680;DHT22;9989;48.962;9.182;2024-01-30T00:01:24;5.30;99.90
19680;DHT22;9989;48.962;9.182;2024-01-30T00:03:50;5.30;99.90
19680;DHT22;9989;48.962;9.182;2024-01-30T00:06:18;5.30;99.90
19680;DHT22;9989;48.962;9.182;2024-01-30T00:08:46;5.30;99.90
19680;DHT22;9989;48.962;9.182;2024-01-30T00:11:14;5.30;99.90
19680;DHT22;9989;48.962;9.182;2024-01-30T00:13:39;5.30;99.90
19680;DHT22;9989;48.962;9.182;2024-01-30T00:16:05;5.20;99.90
19680;DHT22;9989;48.962;9.182;2024-01-30T00:18:31;5.30;99.90
19680;DHT22;9989;48.962;9.182;2024-01-30T00:20:56;5.20;99.90
19680;DHT22;9989;48.962;9.182;2024-01-30T00:23:22;5.20;99.90
19680;DHT22;9989;48.962;9.182;2024-01-30T00:25:48;5.20;99.90
19680;DHT22;9989;48.962;9.182;2024-01-30T00:28:14;5.20;99.90
19680;DHT22;9989;48.962;9.182;2024-01-30T00:30:39;5.20;99.90
19680;DHT22;9989;48.962;9.182;2024-01-30T00:33:05;5.20;99.90
19680;DHT22;9989;48.962;9.182;2024-01-30T00:35:30;5.20;99.90
19680;DHT22;9989;48.962;9.182;2024-01-30T00:37:56;5.10;99.90
19680;DHT22;9989;48.962;9.182;2024-01-30T00:40:22;5.10;99.90
19680;DHT22;9989;48.962;9.182;2024-01-30T00:42:48;5.10;99.90
19680;DHT22;9989;48.962;9.182;2024-01-30T00:45:15;5.10;99.90
19680;DHT22;9989;48.962;9.182;2024-01-30T00:47:41;5.10;99.90
19680;DHT22;9989;48.962;9.182;2024-01-30T00:50:07;5.10;99.90
19680;DHT22;9989;48.962;9.182;2024-01-30T00:52:33;5.10;99.90
19680;DHT22;9989;48.962;9.182;2024-01-30T00:55:02;5.10;99.90
19680;DHT22;9989;48.962;9.182;2024-01-30T00:57:28;5.10;99.90
19680;DHT22;9989;48.962;9.182;2024-01-30T00:59:54;5.10;99.90
19680;DHT22;9989;48.962;9.182;2024-01-30T01:02:20;5.10;99.90
19680;DHT22;9989;48.962;9.182;2024-01-30T01:04:45;5.10;99.90
19680;DHT22;9989;48.962;9.182;2024-01-30T01:07:11;5.10;99.90
19680;DHT22;9989;48.962;9.182;2024-01-30T01:09:37;5.10;99.90
19680;DHT22;9989;48.962;9.182;2024-01-30T01:12:04;5.10;99.90
19680;DHT22;9989;48.962;9.182;2024-01-30T01:14:30;5.10;99.90
19680;DHT22;9989;48.962;9.182;2024-01-30T01:16:55;5.10;99.90
19680;DHT22;9989;48.962;9.182;2024-01-30T01:19:21;5.00;99.90
19680;DHT22;9989;48.962;9.182;2024-01-30T01:21:47;5.00;99.90
19680;DHT22;9989;48.962;9.182;2024-01-30T01:24:13;5.00;99.90
19680;DHT22;9989;48.962;9.182;2024-01-30T01:26:38;5.00;99.90
19680;DHT22;9989;48.962;9.182;2024-01-30T01:29:06;5.00;99.90
19680;DHT22;9989;48.962;9.182;2024-01-30T01:31:37;5.00;99.90
19680;DHT22;9989;48.962;9.182;2024-01-30T01:34:12;5.00;99.90
19680;DHT22;9989;48.962;9.182;2024-01-30T01:36:38;4.90;99.90
19680;DHT22;9989;48.962;9.182;2024-01-30T01:39:04;4.90;99.90
19680;DHT22;9989;48.962;9.182;2024-01-30T01:41:33;4.90;99.90
19680;DHT22;9989;48.962;9.182;2024-01-30T01:43:59;4.90;99.90
19680;DHT22;9989;48.962;9.182;2024-01-30T01:46:30;4.80;99.90
19680;DHT22;9989;48.962;9.182;2024-01-30T01:48:57;4.80;99.90
19680;DHT22;9989;48.962;9.182;2024-01-30T01:51:24;4.80;99.90
19680;DHT22;9989;48.962;9.182;2024-01-30T01:53:53;4.80;99.90
19680;DHT22;9989;48.962;9.182;2024-01-30T01:56:19;4.80;99.90
19680;DHT22;9989;48.962;9.182;2024-01-30T01:58:46;4.80;99.90
19680;DHT22;9989;48.962;9.182;2024-01-30T02:01:13;4.80;99.90
19680;DHT22;9989;48.962;9.182;2024-01-30T02:03:41;4.80;99.90
19680;DHT22;9989;48.962;9.182;2024-01-30T02:06:07;4.80;99.90
19680;DHT22;9989;48.962;9.182;2024-01-30T02:08:32;4.70;99.90
19680;DHT22;9989;48.962;9.182;2024-01-30T02:11:00;4.70;99.90
19680;DHT22;9989;48.962;9.182;2024-01-30T02:13:26;4.70;99.90
19680;DHT22;9989;48.962;9.182;2024-01-30T02:15:52;4.70;99.90
19680;DHT22;9989;48.962;9.182;2024-01-30T02:18:19;4.60;99.90
19680;DHT22;9989;48.962;9.182;2024-01-30T02:20:46;4.60;99.90
19680;DHT22;9989;48.962;9.182;2024-01-30T02:23:17;4.60;99.90
19680;DHT22;9989;48.962;9.182;2024-01-30T02:25:46;4.60;99.90
19680;DHT22;9989;48.962;9.182;2024-01-30T02:28:12;4.60;99.90
19680;DHT22;9989;48.962;9.182;2024-01-30T02:30:45;4.60;99.90
19680;DHT22;9989;48.962;9.182;2024-01-30T02:33:11;4.50;99.90
19680;DHT22;9989;48.962;9.182;2024-01-30T02:35:37;4.50;99.90
19680;DHT22;9989;48.962;9.182;2024-01-30T02:38:03;4.50;99.90
19680;DHT22;9989;48.962;9.182;2024-01-30T02:40:29;4.40;99.90
19680;DHT22;9989;48.962;9.182;2024-01-30T02:42:56;4.40;99.90
19680;DHT22;9989;48.962;9.182;2024-01-30T02:45:21;4.40;99.90
19680;DHT22;9989;48.962;9.182;2024-01-30T02:47:47;4.40;99.90
19680;DHT22;9989;48.962;9.182;2024-01-30T02:50:13;4.40;99.90
19680;DHT22;9989;48.962;9.182;2024-01-30T02:52:40;4.40;99.90
19680;DHT22;9989;48.962;9.182;2024-01-30T02:55:06;4.40;99.90
19680;DHT22;9989;48.962;9.182;2024-01-30T02:57:32;4.40;99.90
19680;DHT22;9989;48.962;9.182;2024-01-30T02:59:58;4.30;99.90
19680;DHT22;9989;48.962;9.182;2024-01-30T03:02:23;4.30;99.90
19680;DHT22;9989;48.962;9.182;2024-01-30T03:04:49;4.30;99.90
19680;DHT22;9989;48.962;9.182;2024-01-30T03:07:15;4.30;99.90
19680;DHT22;9989;48.962;9.182;2024-01-30T03:09:44;4.30;99.90
19680;DHT22;9989;48.962;9.182;2024-01-30T03:12:10;4.20;99.90
19680;DHT22;9989;48.962;9.182;2024-01-30T03:14:35;4.20;99.90
19680;DHT22;9989;48.962;9.182;2024-01-30T03:17:01;4.20;99.90
19680;DHT22;9989;48.962;9.182;2024-01-30T03:19:27;4.20;99.90
19680;DHT22;9989;48.962;9.182;2024-01-30T03:21:52;4.20;99.90
19680;DHT22;9989;48.962;9.182;2024-01-30T03:24:18;4.20;99.90
19680;DHT22;9989;48.962;9.182;2024-01-30T03:26:44;4.20;99.90
19680;DHT22;9989;48.962;9.182;2024-01-30T03:29:11;4.10;99.90
19680;DHT22;9989;48.962;9.182;2024-01-30T03:31:36;4.10;99.90
19680;DHT22;9989;48.962;9.182;2024-01-30T03:34:02;4.10;99.90
19680;DHT22;9989;48.962;9.182;2024-01-30T03:36:28;4.10;99.90
19680;DHT22;9989;48.962;9.182;2024-01-30T03:38:54;4.10;99.90
19680;DHT22;9989;48.962;9.182;2024-01-30T03:41:20;4.10;99.90
19680;DHT22;9989;48.962;9.182;2024-01-30T03:43:47;4.10;99.90
19680;DHT22;9989;48.962;9.182;2024-01-30T03:46:13;4.00;99.90
19680;DHT22;9989;48.962;9.182;2024-01-30T03:48:39;4.10;99.90
19680;DHT22;9989;48.962;9.182;2024-01-30T03:51:04;4.00;99.90
19680;DHT22;9989;48.962;9.182;2024-01-30T03:53:30;4.00;99.90
19680;DHT22;9989;48.962;9.182;2024-01-30T03:55:56;4.00;99.90
19680;DHT22;9989;48.962;9.182;2024-01-30T03:58:22;4.00;99.90
19680;DHT22;9989;48.962;9.182;2024-01-30T04:00:47;4.00;99.90
19680;DHT22;9989;48.962;9.182;2024-01-30T04:03:14;4.00;99.90
19680;DHT22;9989;48.962;9.182;2024-01-30T04:05:41;4.00;99.90
19680;DHT22;9989;48.962;9.182;2024-01-30T04:08:08;3.90;99.90
19680;DHT22;9989;48.962;9.182;2024-01-30T04:10:34;3.90;99.90
19680;DHT22;9989;48.962;9.182;2024-01-30T04:13:00;3.90;99.90
19680;DHT22;9989;48.962;9.182;2024-01-30T04:15:25;3.90;99.90
19680;DHT22;9989;48.962;9.182;2024-01-30T04:17:51;3.90;99.90
19680;DHT22;9989;48.962;9.182;2024-01-30T04:20:17;4.00;99.90
19680;DHT22;9989;48.962;9.182;2024-01-30T04:22:44;4.00;99.90
19680;DHT22;9989;48.962;9.182;2024-01-30T04:25:10;4.00;99.90
19680;DHT22;9989;48.962;9.182;2024-01-30T04:27:36;4.00;99.90
19680;DHT22;9989;48.962;9.182;2024-01-30T04:30:02;4.00;99.90
19680;DHT22;9989;48.962;9.182;2024-01-30T04:32:27;4.00;99.90
19680;DHT22;9989;48.962;9.182;2024-01-30T04:34:53;4.00;99.90
19680;DHT22;9989;48.962;9.182;2024-01-30T04:37:18;3.90;99.90
19680;DHT22;9989;48.962;9.182;2024-01-30T04:39:44;3.90;99.90
19680;DHT22;9989;48.962;9.182;2024-01-30T04:42:10;3.80;99.90
19680;DHT22;9989;48.962;9.182;2024-01-30T04:44:35;3.80;99.90
19680;DHT22;9989;48.962;9.182;2024-01-30T04:47:01;3.80;99.90
19680;DHT22;9989;48.962;9.182;2024-01-30T04:49:28;3.80;99.90
19680;DHT22;9989;48.962;9.182;2024-01-30T04:51:54;3.90;99.90
19680;DHT22;9989;48.962;9.182;2024-01-30T04:54:21;3.80;99.90
19680;DHT22;9989;48.962;9.182;2024-01-30T04:56:47;3.80;99.90
19680;DHT22;9989;48.962;9.182;2024-01-30T04:59:13;3.80;99.90
19680;DHT22;9989;48.962;9.182;2024-01-30T05:01:39;3.80;99.90
19680;DHT22;9989;48.962;9.182;2024-01-30T05:04:07;3.80;99.90
19680;DHT22;9989;48.962;9.182;2024-01-30T05:06:33;3.80;99.90
19680;DHT22;9989;48.962;9.182;2024-01-30T05:08:59;3.90;99.90
19680;DHT22;9989;48.962;9.182;2024-01-30T05:11:24;3.80;99.90
19680;DHT22;9989;48.962;9.182;2024-01-30T05:13:50;3.90;99.90
19680;DHT22;9989;48.962;9.182;2024-01-30T05:16:16;3.90;99.90
19680;DHT22;9989;48.962;9.182;2024-01-30T05:18:44;3.90;99.90
19680;DHT22;9989;48.962;9.182;2024-01-30T05:21:10;3.80;99.90
19680;DHT22;9989;48.962;9.182;2024-01-30T05:23:36;3.90;99.90
19680;DHT22;9989;48.962;9.182;2024-01-30T05:26:02;3.90;99.90
19680;DHT22;9989;48.962;9.182;2024-01-30T05:28:29;3.90;99.90
19680;DHT22;9989;48.962;9.182;2024-01-30T05:30:56;3.90;99.90
19680;DHT22;9989;48.962;9.182;2024-01-30T05:33:21;3.90;99.90
19680;DHT22;9989;48.962;9.182;2024-01-30T05:35:47;3.90;99.90
19680;DHT22;9989;48.962;9.182;2024-01-30T05:38:15;3.90;99.90
19680;DHT22;9989;48.962;9.182;2024-01-30T05:40:41;3.90;99.90
19680;DHT22;9989;48.962;9.182;2024-01-30T05:43:06;4.00;99.90
19680;DHT22;9989;48.962;9.182;2024-01-30T05:45:33;4.00;99.90
19680;DHT22;9989;48.962;9.182;2024-01-30T05:48:00;4.00;99.90
19680;DHT22;9989;48.962;9.182;2024-01-30T05:50:26;4.00;99.90
19680;DHT22;9989;48.962;9.182;2024-01-30T05:52:52;4.00;99.90
19680;DHT22;9989;48.962;9.182;2024-01-30T05:55:18;4.00;99.90
19680;DHT22;9989;48.962;9.182;2024-01-30T05:57:44;4.00;99.90
19680;DHT22;9989;48.962;9.182;2024-01-30T06:00:10;4.00;99.90
19680;DHT22;9989;48.962;9.182;2024-01-30T06:02:36;4.00;99.90
19680;DHT22;9989;48.962;9.182;2024-01-30T06:05:02;4.00;99.90
19680;DHT22;9989;48.962;9.182;2024-01-30T06:07:27;4.00;99.90
19680;DHT22;9989;48.962;9.182;2024-01-30T06:09:53;4.00;99.90
19680;DHT22;9989;48.962;9.182;2024-01-30T06:12:19;4.00;99.90
19680;DHT22;9989;48.962;9.182;2024-01-30T06:14:44;4.10;99.90
19680;DHT22;9989;48.962;9.182;2024-01-30T06:17:10;4.10;99.90
19680;DHT22;9989;48.962;9.182;2024-01-30T06:19:40;4.10;99.90
19680;DHT22;9989;48.962;9.182;2024-01-30T06:22:05;4.00;99.90
19680;DHT22;9989;48.962;9.182;2024-01-30T06:24:31;4.00;99.90
19680;DHT22;9989;48.962;9.182;2024-01-30T06:26:57;4.00;99.90
19680;DHT22;9989;48.962;9.182;2024-01-30T06:29:22;4.00;99.90
19680;DHT22;9989;48.962;9.182;2024-01-30T06:31:50;4.00;99.90
19680;DHT22;9989;48.962;9.182;2024-01-30T06:34:16;4.00;99.90
19680;DHT22;9989;48.962;9.182;2024-01-30T06:36:41;4.00;99.90
19680;DHT22;9989;48.962;9.182;2024-01-30T06:39:07;4.00;99.90
19680;DHT22;9989;48.962;9.182;2024-01-30T06:41:33;4.00;99.90
19680;DHT22;9989;48.962;9.182;2024-01-30T06:43:59;4.00;99.90
19680;DHT22;9989;48.962;9.182;2024-01-30T06:46:24;4.00;99.90
19680;DHT22;9989;48.962;9.182;2024-01-30T06:48:50;4.00;99.90
19680;DHT22;9989;48.962;9.182;2024-01-30T06:51:16;4.00;99.90
19680;DHT22;9989;48.962;9.182;2024-01-30T06:53:41;4.00;99.90
19680;DHT22;9989;48.962;9.182;2024-01-30T06:56:08;4.00;99.90
19680;DHT22;9989;48.962;9.182;2024-01-30T06:58:33;4.00;99.90
19680;DHT22;9989;48.962;9.182;2024-01-30T07:00:59;4.00;99.90
19680;DHT22;9989;48.962;9.182;2024-01-30T07:03:24;3.90;99.90
19680;DHT22;9989;48.962;9.182;2024-01-30T07:05:50;4.00;99.90
19680;DHT22;9989;48.962;9.182;2024-01-30T07:08:17;3.90;99.90
19680;DHT22;9989;48.962;9.182;2024-01-30T07:10:45;4.00;99.90
19680;DHT22;9989;48.962;9.182;2024-01-30T07:13:11;4.00;99.90
19680;DHT22;9989;48.962;9.182;2024-01-30T07:15:37;4.00;99.90
19680;DHT22;9989;48.962;9.182;2024-01-30T07:18:03;4.00;99.90
19680;DHT22;9989;48.962;9.182;2024-01-30T07:20:30;4.10;99.90
19680;DHT22;9989;48.962;9.182;2024-01-30T07:22:57;4.10;99.90
19680;DHT22;9989;48.962;9.182;2024-01-30T07:25:23;4.20;99.90
19680;DHT22;9989;48.962;9.182;2024-01-30T07:27:52;4.20;99.90
19680;DHT22;9989;48.962;9.182;2024-01-30T07:30:18;4.30;99.90
19680;DHT22;9989;48.962;9.182;2024-01-30T07:32:44;4.30;99.90
19680;DHT22;9989;48.962;9.182;2024-01-30T07:35:10;4.40;99.90
19680;DHT22;9989;48.962;9.182;2024-01-30T07:37:36;4.40;99.90
19680;DHT22;9989;48.962;9.182;2024-01-30T07:40:03;4.50;99.90
19680;DHT22;9989;48.962;9.182;2024-01-30T07:42:28;4.60;99.90
19680;DHT22;9989;48.962;9.182;2024-01-30T07:44:54;4.70;99.90
19680;DHT22;9989;48.962;9.182;2024-01-30T07:47:20;4.80;99.90
19680;DHT22;9989;48.962;9.182;2024-01-30T07:49:46;4.90;99.90
19680;DHT22;9989;48.962;9.182;2024-01-30T07:52:12;5.00;99.90
19680;DHT22;9989;48.962;9.182;2024-01-30T07:54:39;5.20;99.90
19680;DHT22;9989;48.962;9.182;2024-01-30T07:57:05;5.40;99.90
19680;DHT22;9989;48.962;9.182;2024-01-30T07:59:30;5.60;99.90
19680;DHT22;9989;48.962;9.182;2024-01-30T08:01:56;5.70;99.90
19680;DHT22;9989;48.962;9.182;2024-01-30T08:04:23;5.80;99.90
19680;DHT22;9989;48.962;9.182;2024-01-30T08:06:49;6.00;99.90
19680;DHT22;9989;48.962;9.182;2024-01-30T08:09:14;6.40;99.90
19680;DHT22;9989;48.962;9.182;2024-01-30T08:11:40;6.80;99.90
19680;DHT22;9989;48.962;9.182;2024-01-30T08:14:06;7.30;99.90
19680;DHT22;9989;48.962;9.182;2024-01-30T08:16:32;7.60;99.90
19680;DHT22;9989;48.962;9.182;2024-01-30T08:18:57;8.10;99.90
19680;DHT22;9989;48.962;9.182;2024-01-30T08:21:23;8.50;99.90
19680;DHT22;9989;48.962;9.182;2024-01-30T08:23:49;8.90;99.90
19680;DHT22;9989;48.962;9.182;2024-01-30T08:26:15;9.40;99.90
19680;DHT22;9989;48.962;9.182;2024-01-30T08:28:40;10.00;99.90
19680;DHT22;9989;48.962;9.182;2024-01-30T08:31:06;10.50;99.90
19680;DHT22;9989;48.962;9.182;2024-01-30T08:33:32;11.10;99.90
19680;DHT22;9989;48.962;9.182;2024-01-30T08:35:57;11.70;99.90
19680;DHT22;9989;48.962;9.182;2024-01-30T08:38:23;12.20;99.90
19680;DHT22;9989;48.962;9.182;2024-01-30T08:40:49;12.80;99.90
19680;DHT22;9989;48.962;9.182;2024-01-30T08:43:15;13.30;99.90
19680;DHT22;9989;48.962;9.182;2024-01-30T08:45:41;13.70;99.70
19680;DHT22;9989;48.962;9.182;2024-01-30T08:48:07;14.20;97.90
19680;DHT22;9989;48.962;9.182;2024-01-30T08:50:33;14.60;95.80
19680;DHT22;9989;48.962;9.182;2024-01-30T08:53:00;14.80;94.10
19680;DHT22;9989;48.962;9.182;2024-01-30T08:55:25;14.90;92.80
19680;DHT22;9989;48.962;9.182;2024-01-30T08:57:51;15.00;92.10
19680;DHT22;9989;48.962;9.182;2024-01-30T09:00:17;15.00;91.20
19680;DHT22;9989;48.962;9.182;2024-01-30T09:02:43;14.90;90.40
19680;DHT22;9989;48.962;9.182;2024-01-30T09:05:09;14.60;90.10
19680;DHT22;9989;48.962;9.182;2024-01-30T09:07:34;14.30;90.30
19680;DHT22;9989;48.962;9.182;2024-01-30T09:10:00;14.00;90.40
19680;DHT22;9989;48.962;9.182;2024-01-30T09:12:26;13.50;90.70
19680;DHT22;9989;48.962;9.182;2024-01-30T09:14:51;13.10;91.10
19680;DHT22;9989;48.962;9.182;2024-01-30T09:17:17;12.80;91.90
19680;DHT22;9989;48.962;9.182;2024-01-30T09:19:43;12.80;92.40
19680;DHT22;9989;48.962;9.182;2024-01-30T09:22:08;13.40;92.50
19680;DHT22;9989;48.962;9.182;2024-01-30T09:24:34;14.10;91.90
19680;DHT22;9989;48.962;9.182;2024-01-30T09:27:00;15.00;90.90
19680;DHT22;9989;48.962;9.182;2024-01-30T09:29:26;15.90;88.90
19680;DHT22;9989;48.962;9.182;2024-01-30T09:31:51;16.60;85.90
19680;DHT22;9989;48.962;9.182;2024-01-30T09:34:17;17.20;82.80
19680;DHT22;9989;48.962;9.182;2024-01-30T09:36:43;17.80;79.90
19680;DHT22;9989;48.962;9.182;2024-01-30T09:39:09;18.50;77.10
19680;DHT22;9989;48.962;9.182;2024-01-30T09:41:45;19.00;74.50
19680;DHT22;9989;48.962;9.182;2024-01-30T09:44:12;19.30;72.20
19680;DHT22;9989;48.962;9.182;2024-01-30T09:46:38;19.60;70.60
19680;DHT22;9989;48.962;9.182;2024-01-30T09:49:05;19.90;68.30
19680;DHT22;9989;48.962;9.182;2024-01-30T09:51:32;19.90;67.00
19680;DHT22;9989;48.962;9.182;2024-01-30T09:53:58;20.00;66.10
19680;DHT22;9989;48.962;9.182;2024-01-30T09:56:24;20.00;65.40
19680;DHT22;9989;48.962;9.182;2024-01-30T09:58:50;20.10;65.10
19680;DHT22;9989;48.962;9.182;2024-01-30T10:01:17;20.30;64.60
19680;DHT22;9989;48.962;9.182;2024-01-30T10:03:44;20.30;63.40
19680;DHT22;9989;48.962;9.182;2024-01-30T10:06:11;20.20;62.30
19680;DHT22;9989;48.962;9.182;2024-01-30T10:08:37;20.00;62.60
19680;DHT22;9989;48.962;9.182;2024-01-30T10:11:03;19.70;63.30
19680;DHT22;9989;48.962;9.182;2024-01-30T10:13:29;19.30;63.60
19680;DHT22;9989;48.962;9.182;2024-01-30T10:15:55;18.80;64.00
19680;DHT22;9989;48.962;9.182;2024-01-30T10:18:22;18.20;65.40
19680;DHT22;9989;48.962;9.182;2024-01-30T10:20:48;17.60;67.10
19680;DHT22;9989;48.962;9.182;2024-01-30T10:23:14;16.90;68.50
19680;DHT22;9989;48.962;9.182;2024-01-30T10:25:39;16.30;70.10
19680;DHT22;9989;48.962;9.182;2024-01-30T10:28:05;15.90;71.80
19680;DHT22;9989;48.962;9.182;2024-01-30T10:30:31;15.50;73.10
19680;DHT22;9989;48.962;9.182;2024-01-30T10:32:57;15.10;74.10
19680;DHT22;9989;48.962;9.182;2024-01-30T10:35:23;14.80;75.40
19680;DHT22;9989;48.962;9.182;2024-01-30T10:37:48;14.50;76.40
19680;DHT22;9989;48.962;9.182;2024-01-30T10:40:14;14.30;77.80
19680;DHT22;9989;48.962;9.182;2024-01-30T10:42:46;14.10;78.50
19680;DHT22;9989;48.962;9.182;2024-01-30T10:45:14;14.00;79.50
19680;DHT22;9989;48.962;9.182;2024-01-30T10:47:49;13.80;80.20
19680;DHT22;9989;48.962;9.182;2024-01-30T10:50:15;13.80;81.10
19680;DHT22;9989;48.962;9.182;2024-01-30T10:52:42;13.80;81.80
19680;DHT22;9989;48.962;9.182;2024-01-30T10:55:08;13.80;82.10
19680;DHT22;9989;48.962;9.182;2024-01-30T10:57:35;13.80;82.20
19680;DHT22;9989;48.962;9.182;2024-01-30T11:00:10;13.60;82.50
19680;DHT22;9989;48.962;9.182;2024-01-30T11:02:43;13.60;83.00
19680;DHT22;9989;48.962;9.182;2024-01-30T11:05:09;13.50;83.60
19680;DHT22;9989;48.962;9.182;2024-01-30T11:07:35;13.50;84.20
19680;DHT22;9989;48.962;9.182;2024-01-30T11:10:04;13.50;84.60
19680;DHT22;9989;48.962;9.182;2024-01-30T11:12:31;13.40;84.70
19680;DHT22;9989;48.962;9.182;2024-01-30T11:20:12;13.40;85.40
19680;DHT22;9989;48.962;9.182;2024-01-30T11:22:41;13.50;85.40
19680;DHT22;9989;48.962;9.182;2024-01-30T11:25:11;13.50;85.10
19680;DHT22;9989;48.962;9.182;2024-01-30T11:27:38;13.60;85.30
19680;DHT22;9989;48.962;9.182;2024-01-30T11:30:04;13.50;85.00
19680;DHT22;9989;48.962;9.182;2024-01-30T11:32:30;13.50;85.40
19680;DHT22;9989;48.962;9.182;2024-01-30T11:34:56;13.30;85.40
19680;DHT22;9989;48.962;9.182;2024-01-30T11:37:25;13.20;85.60
19680;DHT22;9989;48.962;9.182;2024-01-30T11:39:53;13.00;86.20
19680;DHT22;9989;48.962;9.182;2024-01-30T11:42:19;13.00;87.00
19680;DHT22;9989;48.962;9.182;2024-01-30T11:44:48;12.90;87.60
19680;DHT22;9989;48.962;9.182;2024-01-30T11:47:14;12.80;87.80
19680;DHT22;9989;48.962;9.182;2024-01-30T11:49:40;12.80;88.30
19680;DHT22;9989;48.962;9.182;2024-01-30T11:52:06;12.80;88.90
19680;DHT22;9989;48.962;9.182;2024-01-30T11:54:32;12.80;88.70
19680;DHT22;9989;48.962;9.182;2024-01-30T11:56:57;12.80;88.70
19680;DHT22;9989;48.962;9.182;2024-01-30T11:59:24;12.80;88.80
19680;DHT22;9989;48.962;9.182;2024-01-30T12:01:51;12.80;88.90
19680;DHT22;9989;48.962;9.182;2024-01-30T12:04:18;12.80;89.10
19680;DHT22;9989;48.962;9.182;2024-01-30T12:06:43;12.80;89.30
19680;DHT22;9989;48.962;9.182;2024-01-30T12:09:09;12.70;89.40
19680;DHT22;9989;48.962;9.182;2024-01-30T12:11:45;12.70;89.30
19680;DHT22;9989;48.962;9.182;2024-01-30T12:14:11;12.70;89.50
19680;DHT22;9989;48.962;9.182;2024-01-30T12:16:37;12.70;90.10
19680;DHT22;9989;48.962;9.182;2024-01-30T12:19:03;12.80;90.50
19680;DHT22;9989;48.962;9.182;2024-01-30T12:21:29;12.80;90.60
19680;DHT22;9989;48.962;9.182;2024-01-30T12:23:55;12.90;90.60
19680;DHT22;9989;48.962;9.182;2024-01-30T12:26:21;12.90;90.70
19680;DHT22;9989;48.962;9.182;2024-01-30T12:28:50;13.00;90.80
19680;DHT22;9989;48.962;9.182;2024-01-30T12:31:16;13.10;90.60
19680;DHT22;9989;48.962;9.182;2024-01-30T12:33:41;13.10;90.40
19680;DHT22;9989;48.962;9.182;2024-01-30T12:36:07;13.10;90.20
19680;DHT22;9989;48.962;9.182;2024-01-30T12:38:33;13.20;90.00
19680;DHT22;9989;48.962;9.182;2024-01-30T12:40:59;13.30;89.40
19680;DHT22;9989;48.962;9.182;2024-01-30T12:43:25;13.50;89.40
19680;DHT22;9989;48.962;9.182;2024-01-30T12:45:52;13.80;89.10
19680;DHT22;9989;48.962;9.182;2024-01-30T12:48:17;14.10;87.80
19680;DHT22;9989;48.962;9.182;2024-01-30T12:50:43;14.30;86.70
19680;DHT22;9989;48.962;9.182;2024-01-30T12:53:09;14.60;85.70
19680;DHT22;9989;48.962;9.182;2024-01-30T12:55:35;14.90;85.30
19680;DHT22;9989;48.962;9.182;2024-01-30T12:58:01;15.20;84.80
19680;DHT22;9989;48.962;9.182;2024-01-30T13:00:27;15.60;84.00
19680;DHT22;9989;48.962;9.182;2024-01-30T13:02:52;16.20;82.70
19680;DHT22;9989;48.962;9.182;2024-01-30T13:05:18;16.90;79.90
19680;DHT22;9989;48.962;9.182;2024-01-30T13:07:44;17.30;77.60
19680;DHT22;9989;48.962;9.182;2024-01-30T13:10:09;17.50;76.30
19680;DHT22;9989;48.962;9.182;2024-01-30T13:12:35;17.50;75.70
19680;DHT22;9989;48.962;9.182;2024-01-30T13:15:02;17.60;75.10
19680;DHT22;9989;48.962;9.182;2024-01-30T13:17:30;17.80;74.70
19680;DHT22;9989;48.962;9.182;2024-01-30T13:19:55;18.00;73.60
19680;DHT22;9989;48.962;9.182;2024-01-30T13:22:21;18.40;73.00
19680;DHT22;9989;48.962;9.182;2024-01-30T13:24:47;19.30;70.20
19680;DHT22;9989;48.962;9.182;2024-01-30T13:27:13;20.80;66.90
19680;DHT22;9989;48.962;9.182;2024-01-30T13:29:39;22.30;62.90
19680;DHT22;9989;48.962;9.182;2024-01-30T13:32:05;22.70;59.50
19680;DHT22;9989;48.962;9.182;2024-01-30T13:34:31;22.40;59.40
19680;DHT22;9989;48.962;9.182;2024-01-30T13:36:56;21.80;59.50
19680;DHT22;9989;48.962;9.182;2024-01-30T13:39:22;21.10;60.00
19680;DHT22;9989;48.962;9.182;2024-01-30T13:41:48;20.30;61.20
19680;DHT22;9989;48.962;9.182;2024-01-30T13:44:14;19.70;62.70
19680;DHT22;9989;48.962;9.182;2024-01-30T13:46:42;19.20;64.30
19680;DHT22;9989;48.962;9.182;2024-01-30T13:49:07;18.90;66.20
19680;DHT22;9989;48.962;9.182;2024-01-30T13:51:33;19.20;66.40
19680;DHT22;9989;48.962;9.182;2024-01-30T13:53:59;19.30;66.00
19680;DHT22;9989;48.962;9.182;2024-01-30T13:56:24;19.20;65.50
19680;DHT22;9989;48.962;9.182;2024-01-30T13:58:52;18.80;66.20
19680;DHT22;9989;48.962;9.182;2024-01-30T14:01:18;18.30;67.10
19680;DHT22;9989;48.962;9.182;2024-01-30T14:03:44;17.80;68.20
19680;DHT22;9989;48.962;9.182;2024-01-30T14:06:10;17.40;69.70
19680;DHT22;9989;48.962;9.182;2024-01-30T14:08:36;17.00;70.70
19680;DHT22;9989;48.962;9.182;2024-01-30T14:11:02;16.70;71.50
19680;DHT22;9989;48.962;9.182;2024-01-30T14:13:28;16.40;72.30
19680;DHT22;9989;48.962;9.182;2024-01-30T14:15:56;16.10;73.30
19680;DHT22;9989;48.962;9.182;2024-01-30T14:18:22;15.80;74.20
19680;DHT22;9989;48.962;9.182;2024-01-30T14:20:47;15.60;75.40
19680;DHT22;9989;48.962;9.182;2024-01-30T14:23:13;15.50;76.30
19680;DHT22;9989;48.962;9.182;2024-01-30T14:25:39;15.30;77.00
19680;DHT22;9989;48.962;9.182;2024-01-30T14:28:07;15.20;77.70
19680;DHT22;9989;48.962;9.182;2024-01-30T14:30:33;15.00;78.30
19680;DHT22;9989;48.962;9.182;2024-01-30T14:32:59;14.80;79.50
19680;DHT22;9989;48.962;9.182;2024-01-30T14:35:26;14.60;80.20
19680;DHT22;9989;48.962;9.182;2024-01-30T14:37:52;14.40;81.00
19680;DHT22;9989;48.962;9.182;2024-01-30T14:40:19;14.30;81.30
19680;DHT22;9989;48.962;9.182;2024-01-30T14:42:45;14.10;81.80
19680;DHT22;9989;48.962;9.182;2024-01-30T14:45:12;14.00;83.10
19680;DHT22;9989;48.962;9.182;2024-01-30T14:47:38;13.90;84.40
19680;DHT22;9989;48.962;9.182;2024-01-30T14:50:05;13.80;84.80
19680;DHT22;9989;48.962;9.182;2024-01-30T14:52:31;13.70;85.10
19680;DHT22;9989;48.962;9.182;2024-01-30T14:54:58;13.60;85.90
19680;DHT22;9989;48.962;9.182;2024-01-30T14:57:24;13.50;86.80
19680;DHT22;9989;48.962;9.182;2024-01-30T14:59:51;13.40;87.80
19680;DHT22;9989;48.962;9.182;2024-01-30T15:02:17;13.30;88.40
19680;DHT22;9989;48.962;9.182;2024-01-30T15:04:43;13.20;89.80
19680;DHT22;9989;48.962;9.182;2024-01-30T15:07:09;13.10;90.80
19680;DHT22;9989;48.962;9.182;2024-01-30T15:09:36;13.10;91.50
19680;DHT22;9989;48.962;9.182;2024-01-30T15:12:02;12.90;91.70
19680;DHT22;9989;48.962;9.182;2024-01-30T15:14:28;12.80;92.00
19680;DHT22;9989;48.962;9.182;2024-01-30T15:16:55;12.80;92.30
19680;DHT22;9989;48.962;9.182;2024-01-30T15:19:21;12.70;92.80
19680;DHT22;9989;48.962;9.182;2024-01-30T15:21:48;12.60;93.30
19680;DHT22;9989;48.962;9.182;2024-01-30T15:24:14;12.50;93.80
19680;DHT22;9989;48.962;9.182;2024-01-30T15:26:42;12.40;94.10
19680;DHT22;9989;48.962;9.182;2024-01-30T15:29:08;12.30;94.50
19680;DHT22;9989;48.962;9.182;2024-01-30T15:31:34;12.20;94.80
19680;DHT22;9989;48.962;9.182;2024-01-30T15:34:00;12.20;95.20
19680;DHT22;9989;48.962;9.182;2024-01-30T15:36:27;12.10;95.70
19680;DHT22;9989;48.962;9.182;2024-01-30T15:38:53;12.10;96.00
19680;DHT22;9989;48.962;9.182;2024-01-30T15:41:19;12.00;96.30
19680;DHT22;9989;48.962;9.182;2024-01-30T15:43:45;11.90;96.60
19680;DHT22;9989;48.962;9.182;2024-01-30T15:46:12;11.90;96.70
19680;DHT22;9989;48.962;9.182;2024-01-30T15:48:38;11.80;96.80
19680;DHT22;9989;48.962;9.182;2024-01-30T15:51:05;11.70;96.90
19680;DHT22;9989;48.962;9.182;2024-01-30T15:53:33;11.60;96.90